AirNav   Air Wisconsin Up To $57,000 Bonus
 
 977 users online  

OL25 Eagle Chief Airport
Cleo Springs, Oklahoma, USA


FAA INFORMATION EFFECTIVE 03 NOVEMBER 2022

Location

FAA Identifier: OL25
Lat/Long: 36-24-10.0000N 098-27-09.0000W
36-24.166667N 098-27.150000W
36.4027778,-98.4525000
(estimated)
Elevation: 1199 ft. / 365 m (estimated)
From city: 1 mile W of CLEO SPRINGS, OK
Time zone: UTC -6 (UTC -5 during Daylight Saving Time)
Zip code: 73729

Airport Operations

Airport use: Private use. Permission required prior to landing
Activation date: 04/2020
Control tower: no
ARTCC: KANSAS CITY CENTER
FSS: MC ALESTER FLIGHT SERVICE STATION
Attendance: 
Wind indicator: no
Segmented circle: no

Nearby radio navigation aids

VOR radial/distance  VOR name  Freq  Var
ENDr273/26.0VANCE VORTAC115.4005E
ODGr265/32.1WOODRING VOR/DME109.0008E

Airport Services

Airframe service: NONE
Powerplant service: NONE
Bottled oxygen: NONE
Bulk oxygen: NONE

Runway Information

Runway 2/20

Dimensions: 1813 x 50 ft. / 553 x 15 m
Surface: turf, in fair condition
RUNWAY 2  RUNWAY 20
Traffic pattern: leftleft

Airport Ownership and Management from official FAA records

Ownership: Privately-owned
Owner: LARRY MIKE ELLIOTT
220 W TEXAS ST.
CLEO SPRINGS, OK 73729
Phone 580-438-2329
Manager: LARRY MIKE ELLIOTT
220 W TEXAS ST.
CLEO SPRINGS, OK 73729
Phone 580-438-2329

Airport Operational Statistics

Aircraft based on the field: 1
Single engine airplanes: 1
    

Instrument Procedures

There are no published instrument procedures at OL25.

Some nearby airports with instrument procedures:

6K4 - Fairview Municipal Airport (7 nm S)
KAVK - Alva Regional Airport (25 nm NW)
KEND - Vance Air Force Base (26 nm E)
KWDG - Enid Woodring Regional Airport (32 nm E)
KJWG - Watonga Regional Airport (32 nm S)
 
Loc | Ops | Rwys | IFR | FBO | Links
Com | Nav | Svcs | Stats | Notes

AirBoss

 
Aerial photo
No photo
 
Airport distance calculator
Flying to Eagle Chief Airport? Find the distance to fly.

From to OL25

Sunrise and sunset
Times for 29-Nov-2022
 Local
(UTC-6)
 Zulu
(UTC)
Morning civil twilight06:5812:58
Sunrise07:2613:26
Sunset17:1823:18
Evening civil twilight17:4623:46

Current date and time
Zulu (UTC)  30-Nov-2022 01:46:24
Local (UTC-6)  29-Nov-2022 19:46:24
 
METAR
KAVK 
24nm NW 
300135Z AUTO 34010G16KT 10SM SCT110 00/M05 A3012 RMK AO2 PWINO
KEND 
26nm E 
300055Z AUTO 34019KT 10SM FEW032 OVC110 01/M06 A3002 RMK AO2 PRESRR SLP173 T00071060 $
KJWG 
32nm S 
300135Z AUTO 35018G23KT 10SM SCT120 00/M06 A3012 RMK AO2 T00041061
KWDG 
33nm E 
300045Z 34016KT 10SM SCT036 01/M05 A3005
TAF
KEND 
26nm E 
292004Z 2920/3024 30015G25KT 9999 BKN025 QNH2975INS BECMG 2923/2924 34020G30KT 9999 SCT015 QNH2985INS BECMG 3006/3007 34012KT 9999 FEW250 QNH3015INS TX06/2920Z TN05/3012Z
NOTAMs
Click for the latest NOTAMs
NOTAMs are issued by the DoD/FAA and will open in a separate window not controlled by AirNav.

 

 
 

Would you like to see your business listed on this page?

 If your business provides an interesting product or service to pilots, flight crews, aircraft, or users of the Eagle Chief Airport, you should consider listing it here.  To start the listing process, click on the button below
 
Add a business
 

Other Pages about Eagle Chief Airport

Update a link
 
Copyright © AirNav, LLC. All rights reserved. Privacy Policy  Contact